createdAt,value
2024-01-09T00:01:45.838Z,-15.94
2024-01-09T00:06:53.891Z,-15.87
2024-01-09T00:09:21.108Z,-15.88
2024-01-09T00:11:48.270Z,-15.88
2024-01-09T00:14:17.383Z,-15.91
2024-01-09T00:16:44.404Z,-15.95
2024-01-09T00:19:11.397Z,-15.98
2024-01-09T00:21:40.567Z,-16.01
2024-01-09T00:24:07.532Z,-16.03
2024-01-09T00:26:44.466Z,-16.08
2024-01-09T00:29:12.151Z,-16.14
2024-01-09T00:31:39.093Z,-16.20
2024-01-09T00:34:06.126Z,-16.26
2024-01-09T00:36:33.222Z,-16.31
2024-01-09T00:39:00.169Z,-16.33
2024-01-09T00:41:27.252Z,-16.35
2024-01-09T00:43:54.246Z,-16.35
2024-01-09T00:46:21.233Z,-16.32
2024-01-09T00:48:49.500Z,-16.30
2024-01-09T00:51:16.638Z,-16.31
2024-01-09T00:53:43.618Z,-16.33
2024-01-09T00:56:10.713Z,-16.37
2024-01-09T00:58:37.799Z,-16.44
2024-01-09T01:01:06.141Z,-16.46
2024-01-09T01:03:33.110Z,-16.44
2024-01-09T01:06:00.272Z,-16.43
2024-01-09T01:08:27.300Z,-16.41
2024-01-09T01:10:54.236Z,-16.39
2024-01-09T01:13:21.113Z,-16.37
2024-01-09T01:15:48.167Z,-16.34
2024-01-09T01:18:15.428Z,-16.34
2024-01-09T01:20:42.697Z,-16.33
2024-01-09T01:23:09.652Z,-16.37
2024-01-09T01:25:36.886Z,-16.42
2024-01-09T01:28:03.935Z,-16.47
2024-01-09T01:30:30.903Z,-16.52
2024-01-09T01:32:57.909Z,-16.54
2024-01-09T01:35:26.632Z,-16.56
2024-01-09T01:37:53.695Z,-16.60
2024-01-09T01:40:20.737Z,-16.59
2024-01-09T01:42:47.696Z,-16.59
2024-01-09T01:45:23.746Z,-16.63
2024-01-09T01:47:51.256Z,-16.63
2024-01-09T01:50:18.591Z,-16.63
2024-01-09T01:52:48.290Z,-16.64
2024-01-09T01:55:19.535Z,-16.67
2024-01-09T01:57:48.946Z,-16.70
2024-01-09T02:00:17.914Z,-16.74
2024-01-09T02:02:48.496Z,-16.76
2024-01-09T02:05:17.138Z,-16.78
2024-01-09T02:07:47.334Z,-16.79
2024-01-09T02:10:15.447Z,-16.80
2024-01-09T02:12:43.445Z,-16.78
2024-01-09T02:15:11.295Z,-16.78
2024-01-09T02:17:39.651Z,-16.76
2024-01-09T02:20:07.720Z,-16.72
2024-01-09T02:22:35.112Z,-16.70
2024-01-09T02:25:02.666Z,-16.73
2024-01-09T02:27:59.595Z,-16.75
2024-01-09T02:30:27.593Z,-16.80
2024-01-09T02:32:55.408Z,-16.85
2024-01-09T02:35:22.445Z,-16.89
2024-01-09T02:37:49.644Z,-16.86
2024-01-09T02:40:16.707Z,-16.85
2024-01-09T02:42:43.756Z,-16.85
2024-01-09T02:45:11.744Z,-16.85
2024-01-09T02:47:38.768Z,-16.85
2024-01-09T02:50:06.447Z,-16.86
2024-01-09T02:52:33.389Z,-16.90
2024-01-09T02:55:00.338Z,-16.93
2024-01-09T02:57:27.288Z,-16.97
2024-01-09T02:59:54.306Z,-17.04
2024-01-09T03:02:21.470Z,-17.05
2024-01-09T03:04:48.453Z,-17.03
2024-01-09T03:07:15.704Z,-17.03
2024-01-09T03:09:45.002Z,-17.04
2024-01-09T03:12:11.906Z,-17.09
2024-01-09T03:14:43.216Z,-17.17
2024-01-09T03:17:10.696Z,-17.24
2024-01-09T03:19:37.711Z,-17.30
2024-01-09T03:22:05.175Z,-17.31
2024-01-09T03:24:32.734Z,-17.25
2024-01-09T03:26:59.698Z,-17.15
2024-01-09T03:29:26.884Z,-17.04
2024-01-09T03:31:53.821Z,-16.98
2024-01-09T03:34:21.057Z,-16.93
2024-01-09T03:36:48.217Z,-16.90
2024-01-09T03:39:18.226Z,-16.89
2024-01-09T03:41:45.385Z,-16.87
2024-01-09T03:44:14.120Z,-16.89
2024-01-09T03:46:41.831Z,-16.92
2024-01-09T03:49:08.935Z,-16.92
2024-01-09T03:51:35.958Z,-16.97
2024-01-09T03:54:03.096Z,-17.02
2024-01-09T03:56:29.996Z,-17.05
2024-01-09T03:58:57.009Z,-17.04
2024-01-09T04:01:24.142Z,-17.06
2024-01-09T04:03:51.126Z,-17.07
2024-01-09T04:06:18.210Z,-17.07
2024-01-09T04:08:45.244Z,-17.06
2024-01-09T04:11:12.284Z,-17.04
2024-01-09T04:13:40.227Z,-16.98
2024-01-09T04:16:11.228Z,-16.93
2024-01-09T04:18:38.866Z,-16.91
2024-01-09T04:21:06.156Z,-16.93
2024-01-09T04:23:33.649Z,-16.97
2024-01-09T04:26:00.649Z,-17.02
2024-01-09T04:28:27.594Z,-17.10
2024-01-09T04:30:55.344Z,-17.17
2024-01-09T04:33:22.579Z,-17.27
2024-01-09T04:35:49.725Z,-17.36
2024-01-09T04:38:16.854Z,-17.41
2024-01-09T04:40:43.819Z,-17.47
2024-01-09T04:43:10.768Z,-17.52
2024-01-09T04:45:37.639Z,-17.55
2024-01-09T04:48:05.179Z,-17.54
2024-01-09T04:50:32.258Z,-17.54
2024-01-09T04:52:59.288Z,-17.60
2024-01-09T04:55:26.235Z,-17.69
2024-01-09T04:57:53.185Z,-17.80
2024-01-09T05:00:20.855Z,-17.94
2024-01-09T05:02:48.197Z,-18.10
2024-01-09T05:05:16.278Z,-18.16
2024-01-09T05:07:43.440Z,-18.20
2024-01-09T05:10:10.449Z,-18.22
2024-01-09T05:12:37.435Z,-18.22
2024-01-09T05:15:05.100Z,-18.19
2024-01-09T05:17:32.337Z,-18.16
2024-01-09T05:20:00.699Z,-18.13
2024-01-09T05:22:28.210Z,-18.10
2024-01-09T05:24:55.122Z,-18.09
2024-01-09T05:27:22.199Z,-18.09
2024-01-09T05:29:49.213Z,-18.08
2024-01-09T05:32:16.461Z,-18.08
2024-01-09T05:34:43.458Z,-18.08
2024-01-09T05:37:10.408Z,-18.05
2024-01-09T05:39:37.356Z,-17.41
2024-01-09T05:42:04.821Z,-16.79
2024-01-09T05:44:32.255Z,-17.10
2024-01-09T05:46:59.349Z,-17.33
2024-01-09T05:49:26.314Z,-17.48
2024-01-09T05:51:53.645Z,-17.63
2024-01-09T05:54:20.611Z,-17.75
2024-01-09T05:56:47.985Z,-17.82
2024-01-09T05:59:14.938Z,-17.86
2024-01-09T06:01:42.370Z,-17.94
2024-01-09T06:04:09.381Z,-18.04
2024-01-09T06:06:36.518Z,-18.14
2024-01-09T06:09:04.319Z,-18.19
2024-01-09T06:11:31.528Z,-18.21
2024-01-09T06:13:58.646Z,-18.22
2024-01-09T06:16:25.558Z,-18.23
2024-01-09T06:18:52.650Z,-18.22
2024-01-09T06:21:19.663Z,-18.21
2024-01-09T06:23:49.089Z,-18.23
2024-01-09T06:26:16.484Z,-18.26
2024-01-09T06:28:44.588Z,-18.28
2024-01-09T06:31:11.549Z,-18.27
2024-01-09T06:33:38.973Z,-18.26
2024-01-09T06:36:06.676Z,-18.25
2024-01-09T06:38:33.667Z,-18.23
2024-01-09T06:41:00.731Z,-18.20
2024-01-09T06:43:28.181Z,-18.20
2024-01-09T06:45:55.266Z,-18.19
2024-01-09T06:48:22.507Z,-18.17
2024-01-09T06:50:49.667Z,-18.15
2024-01-09T06:53:16.801Z,-18.13
2024-01-09T06:55:45.524Z,-18.09
2024-01-09T06:58:14.080Z,-18.02
2024-01-09T07:00:41.021Z,-17.92
2024-01-09T07:03:08.126Z,-17.76
2024-01-09T07:05:35.247Z,-17.63
2024-01-09T07:08:02.375Z,-17.55
2024-01-09T07:10:29.278Z,-17.36
2024-01-09T07:12:57.200Z,-16.88
2024-01-09T07:15:24.207Z,-16.00
2024-01-09T07:17:51.445Z,-15.12
2024-01-09T07:20:18.496Z,-14.45
2024-01-09T07:22:47.968Z,-13.88
2024-01-09T07:25:16.598Z,-13.42
2024-01-09T07:27:43.707Z,-13.06
2024-01-09T07:30:11.527Z,-12.77
2024-01-09T07:32:38.660Z,-12.41
2024-01-09T07:35:07.144Z,-12.08
2024-01-09T07:37:34.079Z,-11.67
2024-01-09T07:40:01.006Z,-11.22
2024-01-09T07:42:28.268Z,-10.70
2024-01-09T07:44:55.792Z,-10.29
2024-01-09T07:47:22.986Z,-9.99
2024-01-09T07:49:51.056Z,-9.71
2024-01-09T07:52:18.117Z,-9.40
2024-01-09T07:54:45.065Z,-9.08
2024-01-09T07:57:21.538Z,-8.77
2024-01-09T07:59:49.819Z,-8.55
2024-01-09T08:02:17.547Z,-8.27
2024-01-09T08:04:44.725Z,-7.91
2024-01-09T08:07:11.679Z,-7.75
2024-01-09T08:09:38.544Z,-7.59
2024-01-09T08:12:06.194Z,-7.26
2024-01-09T08:14:33.179Z,-6.87
2024-01-09T08:17:00.324Z,-6.63
2024-01-09T08:19:27.345Z,-6.32
2024-01-09T08:21:54.294Z,-6.00
2024-01-09T08:24:21.337Z,-5.79
2024-01-09T08:26:50.019Z,-5.64
2024-01-09T08:29:18.296Z,-5.40
2024-01-09T08:31:50.147Z,-5.15
2024-01-09T08:34:17.647Z,-5.03
2024-01-09T08:36:46.585Z,-4.82
2024-01-09T08:39:16.135Z,-4.39
2024-01-09T08:41:43.791Z,-3.89
2024-01-09T08:44:11.177Z,-3.40
2024-01-09T08:46:38.235Z,-2.94
2024-01-09T08:49:05.330Z,-2.37
2024-01-09T08:51:32.580Z,-1.73
2024-01-09T08:53:59.681Z,-1.14
2024-01-09T08:56:26.757Z,-0.54
2024-01-09T08:58:53.790Z,-0.50
2024-01-09T09:01:24.561Z,-0.34
2024-01-09T09:03:51.485Z,-0.15
2024-01-09T09:06:19.420Z,0.26
2024-01-09T09:08:46.706Z,0.82
2024-01-09T09:11:16.820Z,0.87
2024-01-09T09:13:44.169Z,1.12
2024-01-09T09:16:11.754Z,1.73
2024-01-09T09:18:38.898Z,2.43
2024-01-09T09:21:06.150Z,3.00
2024-01-09T09:23:33.571Z,3.61
2024-01-09T09:26:00.953Z,3.69
2024-01-09T09:28:37.182Z,3.71
2024-01-09T09:31:12.663Z,3.89
2024-01-09T09:33:39.798Z,3.82
2024-01-09T09:36:07.391Z,3.68
2024-01-09T09:38:35.634Z,4.06
2024-01-09T09:41:07.717Z,4.64
2024-01-09T09:43:36.942Z,4.88
2024-01-09T09:46:07.545Z,4.98
2024-01-09T09:48:37.024Z,6.09
2024-01-09T09:51:05.687Z,6.92
2024-01-09T09:53:33.612Z,7.21
2024-01-09T09:56:00.777Z,7.69
2024-01-09T09:58:29.191Z,8.34
2024-01-09T10:00:58.227Z,8.57
2024-01-09T10:03:33.124Z,8.80
2024-01-09T10:06:06.698Z,9.25
2024-01-09T10:08:36.275Z,8.96
2024-01-09T10:11:03.387Z,8.51
2024-01-09T10:13:31.131Z,8.17
2024-01-09T10:15:59.335Z,8.12
2024-01-09T10:18:33.377Z,8.10
2024-01-09T10:21:19.326Z,8.05
2024-01-09T10:23:46.396Z,8.39
2024-01-09T10:26:13.863Z,8.68
2024-01-09T10:28:41.704Z,9.21
2024-01-09T10:31:09.734Z,9.61
2024-01-09T10:33:44.078Z,9.99
2024-01-09T10:36:12.460Z,10.46
2024-01-09T10:38:42.117Z,10.34
2024-01-09T10:41:21.585Z,9.90
2024-01-09T10:43:50.546Z,9.12
2024-01-09T10:46:17.598Z,8.45
2024-01-09T10:48:47.810Z,8.02
2024-01-09T10:51:15.929Z,7.81
2024-01-09T10:53:46.007Z,7.57
2024-01-09T10:56:17.508Z,7.30
2024-01-09T10:58:49.342Z,7.21
2024-01-09T11:01:17.418Z,6.75
2024-01-09T11:03:45.496Z,6.43
2024-01-09T11:06:17.640Z,6.16
2024-01-09T11:08:50.637Z,5.95
2024-01-09T11:11:20.825Z,5.81
2024-01-09T11:13:50.844Z,5.26
2024-01-09T11:16:19.430Z,4.81
2024-01-09T11:18:47.851Z,4.73
2024-01-09T11:21:15.189Z,3.27
2024-01-09T11:23:45.779Z,0.40
2024-01-09T11:26:15.841Z,-1.41
2024-01-09T11:28:47.499Z,-2.63
2024-01-09T11:31:18.492Z,-3.46
2024-01-09T11:33:45.937Z,-4.21
2024-01-09T11:36:13.505Z,-4.86
2024-01-09T11:38:40.637Z,-5.38
2024-01-09T11:41:11.204Z,-5.69
2024-01-09T11:44:01.866Z,-5.84
2024-01-09T11:46:31.972Z,-6.00
2024-01-09T11:49:00.133Z,-5.90
2024-01-09T11:51:27.275Z,-5.48
2024-01-09T11:53:54.400Z,-5.80
2024-01-09T11:56:23.037Z,-6.07
2024-01-09T11:58:52.998Z,-6.22
2024-01-09T12:01:21.111Z,-6.12
2024-01-09T12:03:53.210Z,-5.30
2024-01-09T12:06:22.621Z,-4.10
2024-01-09T12:08:50.101Z,-1.84
2024-01-09T12:11:17.941Z,-0.03
2024-01-09T12:13:46.201Z,1.12
2024-01-09T12:16:24.164Z,1.95
2024-01-09T12:18:54.150Z,2.53
2024-01-09T12:21:21.474Z,3.17
2024-01-09T12:26:24.111Z,4.25
2024-01-09T12:28:51.834Z,4.43
2024-01-09T12:31:20.013Z,4.12
2024-01-09T12:33:47.647Z,3.98
2024-01-09T12:36:15.861Z,3.97
2024-01-09T12:38:42.964Z,4.20
2024-01-09T12:41:10.871Z,4.20
2024-01-09T12:43:40.494Z,4.00
2024-01-09T12:46:07.441Z,4.07
2024-01-09T12:48:34.717Z,4.40
2024-01-09T12:51:06.776Z,4.41
2024-01-09T12:53:35.390Z,4.41
2024-01-09T12:56:16.400Z,4.56
2024-01-09T12:58:48.571Z,4.65
2024-01-09T13:01:17.164Z,4.23
2024-01-09T13:03:45.450Z,3.97
2024-01-09T13:06:14.545Z,3.91
2024-01-09T13:08:41.829Z,4.14
2024-01-09T13:11:11.340Z,4.30
2024-01-09T13:13:40.576Z,4.42
2024-01-09T13:16:08.865Z,4.36
2024-01-09T13:18:36.576Z,4.24
2024-01-09T13:21:04.325Z,4.13
2024-01-09T13:26:04.068Z,4.33
2024-01-09T13:28:31.598Z,4.30
2024-01-09T13:30:59.432Z,3.93
2024-01-09T13:33:27.266Z,3.42
2024-01-09T13:35:54.544Z,2.89
2024-01-09T13:38:21.685Z,2.74
2024-01-09T13:40:50.101Z,2.12
2024-01-09T13:43:17.462Z,1.60
2024-01-09T13:45:44.877Z,1.24
2024-01-09T13:48:13.976Z,0.67
2024-01-09T13:53:10.994Z,-0.15
2024-01-09T13:55:38.067Z,-0.45
2024-01-09T14:01:06.081Z,-0.84
2024-01-09T14:03:33.198Z,-0.96
2024-01-09T14:06:00.212Z,-1.37
2024-01-09T14:08:28.016Z,-1.91
2024-01-09T14:10:55.083Z,-2.51
2024-01-09T14:13:22.070Z,-3.26
2024-01-09T14:15:50.452Z,-3.89
2024-01-09T14:18:17.462Z,-4.41
2024-01-09T14:20:44.556Z,-4.79
2024-01-09T14:23:11.661Z,-5.26
2024-01-09T14:25:41.876Z,-5.59
2024-01-09T14:28:09.284Z,-5.92
2024-01-09T14:30:36.309Z,-6.11
2024-01-09T14:33:03.812Z,-6.21
2024-01-09T14:38:15.363Z,-6.16
2024-01-09T14:40:42.681Z,-6.12
2024-01-09T14:43:09.604Z,-6.24
2024-01-09T14:45:37.373Z,-6.24
2024-01-09T14:48:05.490Z,-6.34
2024-01-09T14:50:32.757Z,-6.62
2024-01-09T14:52:59.780Z,-6.89
2024-01-09T14:55:26.852Z,-7.14
2024-01-09T14:57:54.174Z,-7.41
2024-01-09T15:00:21.524Z,-7.66
2024-01-09T15:02:52.895Z,-7.84
2024-01-09T15:05:21.778Z,-7.99
2024-01-09T15:07:48.807Z,-8.14
2024-01-09T15:10:16.113Z,-8.28
2024-01-09T15:12:43.033Z,-8.40
2024-01-09T15:15:11.522Z,-8.50
2024-01-09T15:17:41.027Z,-8.60
2024-01-09T15:20:11.100Z,-8.68
2024-01-09T15:22:38.053Z,-8.74
2024-01-09T15:25:05.356Z,-8.82
2024-01-09T15:27:32.313Z,-8.91
2024-01-09T15:29:59.260Z,-8.98
2024-01-09T15:32:26.227Z,-9.03
2024-01-09T15:34:54.110Z,-9.10
2024-01-09T15:37:22.268Z,-9.15
2024-01-09T15:39:49.326Z,-9.21
2024-01-09T15:42:16.260Z,-9.28
2024-01-09T15:44:43.214Z,-9.39
2024-01-09T15:47:10.609Z,-9.56
2024-01-09T15:49:40.463Z,-9.72
2024-01-09T15:52:08.414Z,-9.88
2024-01-09T15:54:39.828Z,-10.01
2024-01-09T15:57:08.614Z,-10.13
2024-01-09T15:59:36.528Z,-10.24
2024-01-09T16:02:04.565Z,-10.37
2024-01-09T16:04:33.086Z,-10.46
2024-01-09T16:07:04.597Z,-10.56
2024-01-09T16:09:31.933Z,-10.64
2024-01-09T16:11:59.554Z,-10.70
2024-01-09T16:14:26.956Z,-10.77
2024-01-09T16:16:55.323Z,-10.83
2024-01-09T16:19:22.907Z,-10.90
2024-01-09T16:25:34.000Z,-11.03
2024-01-09T16:28:01.670Z,-11.12
2024-01-09T16:30:34.469Z,-11.22
2024-01-09T16:33:04.320Z,-11.31
2024-01-09T16:35:33.464Z,-11.39
2024-01-09T16:38:02.449Z,-11.46
2024-01-09T16:40:37.733Z,-11.50
2024-01-09T16:43:06.590Z,-11.56
2024-01-09T16:45:34.666Z,-11.60
2024-01-09T16:48:02.710Z,-11.64
2024-01-09T16:50:36.922Z,-11.72
2024-01-09T16:53:06.071Z,-11.82
2024-01-09T16:55:49.817Z,-11.93
2024-01-09T16:58:59.452Z,-12.07
2024-01-09T17:01:35.001Z,-12.23
2024-01-09T17:04:18.183Z,-12.31
2024-01-09T17:06:52.502Z,-12.50
2024-01-09T17:10:00.005Z,-12.70
2024-01-09T17:13:10.664Z,-12.98
2024-01-09T17:15:38.273Z,-13.01
2024-01-09T17:18:08.988Z,-12.94
2024-01-09T17:20:36.426Z,-12.88
2024-01-09T17:23:09.325Z,-12.85
2024-01-09T17:25:41.707Z,-12.84
2024-01-09T17:28:12.153Z,-12.87
2024-01-09T17:30:39.941Z,-12.43
2024-01-09T17:33:07.635Z,-10.72
2024-01-09T17:35:56.261Z,-10.90
2024-01-09T17:38:24.031Z,-11.62
2024-01-09T17:40:52.462Z,-12.17
2024-01-09T17:43:20.561Z,-12.60
2024-01-09T17:45:49.396Z,-12.86
2024-01-09T17:48:21.715Z,-13.08
2024-01-09T17:50:52.284Z,-13.32
2024-01-09T17:53:19.958Z,-13.55
2024-01-09T17:55:50.541Z,-13.73
2024-01-09T17:58:22.420Z,-13.86
2024-01-09T18:00:52.457Z,-13.93
2024-01-09T18:03:23.840Z,-14.07
2024-01-09T18:05:52.306Z,-14.20
2024-01-09T18:08:22.499Z,-14.19
2024-01-09T18:10:52.017Z,-14.10
2024-01-09T18:13:20.585Z,-14.03
2024-01-09T18:15:47.951Z,-14.07
2024-01-09T18:18:15.478Z,-14.16
2024-01-09T18:20:43.145Z,-14.28
2024-01-09T18:23:10.537Z,-14.39
2024-01-09T18:25:38.096Z,-14.45
2024-01-09T18:28:08.259Z,-14.51
2024-01-09T18:30:35.705Z,-14.58
2024-01-09T18:33:06.010Z,-14.58
2024-01-09T18:35:34.099Z,-12.55
2024-01-09T18:38:02.562Z,-10.18
2024-01-09T18:40:32.152Z,-10.52
2024-01-09T18:43:00.117Z,-11.67
2024-01-09T18:45:28.670Z,-12.57
2024-01-09T18:47:58.627Z,-13.17
2024-01-09T18:50:26.391Z,-13.63
2024-01-09T18:52:55.063Z,-13.95
2024-01-09T18:55:22.912Z,-14.19
2024-01-09T18:57:51.805Z,-14.36
2024-01-09T19:00:20.634Z,-14.52
2024-01-09T19:02:47.894Z,-14.64
2024-01-09T19:05:17.513Z,-14.70
2024-01-09T19:07:54.066Z,-14.64
2024-01-09T19:10:21.461Z,-14.50
2024-01-09T19:12:50.825Z,-14.46
2024-01-09T19:15:19.461Z,-14.42
2024-01-09T19:17:47.265Z,-14.47
2024-01-09T19:20:16.216Z,-14.57
2024-01-09T19:22:43.224Z,-14.63
2024-01-09T19:25:14.579Z,-14.68
2024-01-09T19:27:44.822Z,-14.64
2024-01-09T19:30:13.714Z,-14.68
2024-01-09T19:32:42.477Z,-14.66
2024-01-09T19:35:14.681Z,-14.70
2024-01-09T19:37:48.365Z,-14.68
2024-01-09T19:40:17.203Z,-14.70
2024-01-09T19:42:49.217Z,-14.79
2024-01-09T19:45:31.330Z,-14.90
2024-01-09T19:48:02.054Z,-14.94
2024-01-09T19:50:33.932Z,-14.99
2024-01-09T19:53:05.806Z,-14.99
2024-01-09T19:55:53.438Z,-14.86
2024-01-09T19:58:28.053Z,-14.68
2024-01-09T20:00:59.189Z,-14.57
2024-01-09T20:03:26.745Z,-14.48
2024-01-09T20:05:53.964Z,-14.51
2024-01-09T20:08:21.136Z,-14.55
2024-01-09T20:10:48.612Z,-14.56
2024-01-09T20:13:16.198Z,-14.66
2024-01-09T20:15:45.233Z,-14.82
2024-01-09T20:18:12.666Z,-14.83
2024-01-09T20:20:40.553Z,-14.71
2024-01-09T20:23:09.531Z,-14.86
2024-01-09T20:25:37.938Z,-14.97
2024-01-09T20:28:06.981Z,-15.00
2024-01-09T20:30:47.002Z,-15.07
2024-01-09T20:33:15.186Z,-15.16
2024-01-09T20:35:46.691Z,-15.22
2024-01-09T20:38:14.324Z,-15.32
2024-01-09T20:40:41.876Z,-15.39
2024-01-09T20:43:11.105Z,-15.41
2024-01-09T20:45:39.338Z,-15.47
2024-01-09T20:48:12.553Z,-15.51
2024-01-09T20:50:41.131Z,-15.49
2024-01-09T20:53:10.847Z,-15.47
2024-01-09T20:55:42.468Z,-15.38
2024-01-09T20:58:10.600Z,-15.26
2024-01-09T21:00:49.997Z,-15.19
2024-01-09T21:03:20.955Z,-15.18
2024-01-09T21:05:53.145Z,-15.21
2024-01-09T21:08:22.666Z,-15.25
2024-01-09T21:10:53.077Z,-15.26
2024-01-09T21:13:21.145Z,-15.34
2024-01-09T21:15:51.462Z,-15.43
2024-01-09T21:18:20.305Z,-15.56
2024-01-09T21:20:47.829Z,-15.60
2024-01-09T21:23:31.618Z,-15.64
2024-01-09T21:26:10.929Z,-15.62
2024-01-09T21:28:39.146Z,-14.70
2024-01-09T21:31:07.133Z,-11.78
2024-01-09T21:33:45.247Z,-10.37
2024-01-09T21:36:13.392Z,-11.53
2024-01-09T21:39:03.997Z,-12.68
2024-01-09T21:41:35.493Z,-13.38
2024-01-09T21:44:29.290Z,-13.87
2024-01-09T21:46:59.723Z,-14.41
2024-01-09T21:49:27.487Z,-14.76
2024-01-09T21:52:07.976Z,-14.99
2024-01-09T21:55:18.642Z,-15.19
2024-01-09T21:57:58.303Z,-15.38
2024-01-09T22:00:31.313Z,-15.45
2024-01-09T22:03:02.321Z,-15.46
2024-01-09T22:05:29.601Z,-15.50
2024-01-09T22:07:59.850Z,-15.60
2024-01-09T22:10:41.102Z,-15.67
2024-01-09T22:13:28.599Z,-15.60
2024-01-09T22:16:16.196Z,-15.57
2024-01-09T22:18:43.909Z,-15.68
2024-01-09T22:21:16.878Z,-15.81
2024-01-09T22:23:44.143Z,-15.77
2024-01-09T22:26:22.546Z,-15.58
2024-01-09T22:29:09.033Z,-15.36
2024-01-09T22:31:58.273Z,-15.20
2024-01-09T22:34:26.477Z,-15.10
2024-01-09T22:37:06.667Z,-15.05
2024-01-09T22:39:41.165Z,-15.01
2024-01-09T22:42:15.069Z,-14.97
2024-01-09T22:44:48.658Z,-14.98
2024-01-09T22:47:21.340Z,-15.02
2024-01-09T22:49:49.080Z,-15.14
2024-01-09T22:52:16.658Z,-15.27
2024-01-09T22:54:47.403Z,-15.31
2024-01-09T22:57:31.339Z,-15.45
2024-01-09T23:00:01.515Z,-15.64
2024-01-09T23:02:37.066Z,-15.77
2024-01-09T23:05:08.390Z,-15.75
2024-01-09T23:07:36.125Z,-15.70
2024-01-09T23:10:08.189Z,-15.75
2024-01-09T23:12:36.721Z,-15.86
2024-01-09T23:15:07.825Z,-15.92
2024-01-09T23:17:37.357Z,-15.92
2024-01-09T23:20:06.444Z,-15.91
2024-01-09T23:22:37.048Z,-15.82
2024-01-09T23:25:10.644Z,-15.82
2024-01-09T23:27:46.610Z,-15.83
2024-01-09T23:30:19.908Z,-15.87
2024-01-09T23:32:50.980Z,-15.81
2024-01-09T23:35:22.190Z,-15.74
2024-01-09T23:37:54.055Z,-15.76
2024-01-09T23:40:21.387Z,-15.88
2024-01-09T23:42:51.184Z,-15.94
2024-01-09T23:45:21.914Z,-15.91
2024-01-09T23:47:54.320Z,-14.37
2024-01-09T23:50:22.604Z,-12.83
2024-01-09T23:52:55.411Z,-13.43
2024-01-09T23:55:24.338Z,-13.94
2024-01-09T23:57:52.827Z,-14.27
